createdAt,value
2023-03-31T05:03:15.039Z,37.89
2023-03-31T05:04:15.934Z,37.93
2023-03-31T05:05:15.961Z,37.95
2023-03-31T05:06:15.981Z,38.00
2023-03-31T05:07:16.014Z,38.07
2023-03-31T05:08:15.096Z,38.08
2023-03-31T05:09:16.114Z,38.09
2023-03-31T05:10:16.135Z,38.09
2023-03-31T05:11:16.173Z,38.06
2023-03-31T05:12:16.153Z,38.03
2023-03-31T05:13:16.152Z,38.04
2023-03-31T05:14:16.161Z,38.03
2023-03-31T05:15:16.171Z,38.07
2023-03-31T05:16:16.313Z,38.04
2023-03-31T05:17:16.254Z,38.09
2023-03-31T05:18:15.299Z,38.04
2023-03-31T05:19:15.373Z,38.01
2023-03-31T05:20:16.387Z,38.07
2023-03-31T05:21:16.459Z,38.04
2023-03-31T05:22:16.504Z,38.10
2023-03-31T05:23:16.596Z,38.12
2023-03-31T05:24:16.604Z,38.23
2023-03-31T05:25:16.685Z,38.24
2023-03-31T05:26:16.763Z,38.18
2023-03-31T05:27:16.816Z,38.20
2023-03-31T05:28:16.859Z,38.09
2023-03-31T05:29:16.949Z,38.13
2023-03-31T05:30:16.990Z,38.19
2023-03-31T05:31:17.072Z,38.17
2023-03-31T05:32:17.109Z,38.12
2023-03-31T05:33:16.167Z,38.16
2023-03-31T05:34:16.256Z,38.09
2023-03-31T05:35:17.353Z,38.13
2023-03-31T05:36:17.434Z,38.24
2023-03-31T05:37:16.399Z,38.18
2023-03-31T05:38:17.473Z,38.22
2023-03-31T05:39:17.489Z,38.16
2023-03-31T05:40:16.586Z,38.17
2023-03-31T05:41:17.629Z,38.19
2023-03-31T05:42:16.656Z,38.17
2023-03-31T05:43:17.716Z,38.27
2023-03-31T05:44:17.777Z,38.19
2023-03-31T05:45:17.837Z,38.20
2023-03-31T05:46:17.958Z,38.25
2023-03-31T05:47:17.986Z,38.24
2023-03-31T05:48:18.021Z,38.14
2023-03-31T05:49:18.111Z,38.03
2023-03-31T05:50:18.177Z,38.15
2023-03-31T05:51:18.238Z,38.19
2023-03-31T05:52:18.645Z,38.05
2023-03-31T05:53:18.373Z,38.06
2023-03-31T05:54:18.401Z,38.26
2023-03-31T05:55:18.453Z,38.10
2023-03-31T05:56:18.529Z,38.06
2023-03-31T05:57:18.596Z,38.01
2023-03-31T05:58:18.594Z,38.05
2023-03-31T05:59:18.666Z,38.05
2023-03-31T06:00:18.697Z,38.12
2023-03-31T06:01:18.759Z,38.14
2023-03-31T06:02:19.157Z,38.03
2023-03-31T06:03:18.887Z,37.92
2023-03-31T06:04:17.991Z,37.91
2023-03-31T06:05:18.034Z,37.94
2023-03-31T06:06:19.039Z,37.91
2023-03-31T06:07:19.138Z,37.92
2023-03-31T06:08:18.151Z,38.00
2023-03-31T06:09:19.224Z,38.00
2023-03-31T06:10:19.287Z,37.86
2023-03-31T06:11:18.448Z,37.87
2023-03-31T06:12:19.421Z,37.92
2023-03-31T06:13:19.475Z,37.85
2023-03-31T06:14:19.537Z,37.97
2023-03-31T06:15:19.573Z,37.95
2023-03-31T06:16:19.657Z,37.84
2023-03-31T06:17:19.667Z,37.95
2023-03-31T06:18:19.702Z,37.86
2023-03-31T06:19:19.740Z,37.84
2023-03-31T06:20:27.659Z,37.92
2023-03-31T06:21:19.807Z,37.94
2023-03-31T06:22:20.015Z,37.86
2023-03-31T06:23:18.805Z,37.91
2023-03-31T06:24:18.772Z,37.89
2023-03-31T06:25:19.767Z,37.96
2023-03-31T06:26:18.770Z,37.92
2023-03-31T06:27:19.756Z,37.89
2023-03-31T06:28:18.820Z,37.93
2023-03-31T06:29:18.745Z,37.85
2023-03-31T06:30:19.742Z,37.93
2023-03-31T06:31:18.745Z,37.89
2023-03-31T06:32:19.737Z,37.85
2023-03-31T06:33:19.711Z,37.86
2023-03-31T06:34:21.344Z,37.92
2023-03-31T06:35:18.897Z,37.92
2023-03-31T06:36:19.780Z,37.85
2023-03-31T06:37:19.711Z,37.81
2023-03-31T06:38:18.692Z,37.96
2023-03-31T06:39:19.700Z,37.93
2023-03-31T06:40:19.724Z,38.01
2023-03-31T06:41:18.663Z,37.98
2023-03-31T06:42:19.662Z,37.96
2023-03-31T06:43:19.652Z,37.85
2023-03-31T06:44:19.654Z,37.89
2023-03-31T06:45:19.640Z,37.89
2023-03-31T06:46:18.722Z,37.89
2023-03-31T06:47:19.684Z,37.96
2023-03-31T06:48:19.613Z,37.90
2023-03-31T06:49:19.607Z,37.95
2023-03-31T06:50:19.748Z,37.89
2023-03-31T06:51:19.601Z,37.95
2023-03-31T06:52:19.693Z,37.96
2023-03-31T06:53:19.580Z,38.00
2023-03-31T06:54:19.577Z,37.80
2023-03-31T06:55:19.623Z,38.16
2023-03-31T06:56:18.563Z,38.23
2023-03-31T06:57:18.737Z,38.08
2023-03-31T06:58:19.563Z,38.30
2023-03-31T06:59:19.551Z,37.90
2023-03-31T07:00:22.368Z,38.29
2023-03-31T07:01:19.578Z,38.02
2023-03-31T07:02:19.590Z,37.95
2023-03-31T07:03:18.702Z,38.11
2023-03-31T07:04:19.772Z,37.90
2023-03-31T07:05:19.509Z,37.84
2023-03-31T07:06:18.507Z,37.76
2023-03-31T07:07:19.540Z,37.73
2023-03-31T07:08:18.497Z,36.72
2023-03-31T07:09:18.486Z,36.79
2023-03-31T07:10:19.490Z,37.47
2023-03-31T07:11:20.947Z,37.30
2023-03-31T07:12:19.472Z,37.47
2023-03-31T07:13:19.488Z,37.00
2023-03-31T07:14:18.460Z,36.65
2023-03-31T07:15:19.438Z,36.72
2023-03-31T07:16:19.527Z,36.59
2023-03-31T07:17:19.473Z,37.01
2023-03-31T07:18:18.445Z,36.28
2023-03-31T07:19:18.431Z,36.23
2023-03-31T07:20:18.427Z,36.32
2023-03-31T07:21:18.481Z,36.42
2023-03-31T07:22:19.441Z,36.04
2023-03-31T07:23:19.381Z,36.06
2023-03-31T07:24:18.450Z,36.04
2023-03-31T07:25:19.455Z,35.93
2023-03-31T07:26:18.366Z,36.13
2023-03-31T07:27:19.387Z,35.79
2023-03-31T07:28:19.383Z,35.74
2023-03-31T07:29:19.367Z,35.82
2023-03-31T07:30:19.350Z,36.05
2023-03-31T07:31:19.423Z,35.70
2023-03-31T07:32:18.367Z,35.73
2023-03-31T07:33:19.351Z,35.88
2023-03-31T07:34:19.342Z,35.83
2023-03-31T07:35:19.386Z,35.90
2023-03-31T07:36:19.560Z,36.01
2023-03-31T07:37:19.312Z,36.00
2023-03-31T07:38:19.296Z,35.98
2023-03-31T07:39:19.296Z,36.03
2023-03-31T07:40:18.283Z,36.02
2023-03-31T07:41:19.301Z,36.02
2023-03-31T07:42:19.264Z,36.08
2023-03-31T07:43:19.293Z,36.11
2023-03-31T07:44:19.252Z,36.17
2023-03-31T07:45:19.288Z,36.03
2023-03-31T07:46:18.286Z,36.01
2023-03-31T07:47:19.681Z,36.23
2023-03-31T07:48:18.268Z,36.22
2023-03-31T07:49:19.230Z,36.27
2023-03-31T07:50:19.219Z,36.26
2023-03-31T07:51:19.245Z,36.47
2023-03-31T07:52:19.684Z,36.43
2023-03-31T07:53:19.207Z,36.48
2023-03-31T07:54:19.208Z,36.65
2023-03-31T07:55:18.296Z,36.75
2023-03-31T07:56:18.310Z,36.74
2023-03-31T07:57:19.452Z,36.72
2023-03-31T07:58:19.444Z,36.83
2023-03-31T07:59:19.526Z,36.86
2023-03-31T08:00:18.589Z,36.89
2023-03-31T08:01:19.593Z,37.11
2023-03-31T08:02:18.750Z,37.09
2023-03-31T08:03:18.736Z,37.17
2023-03-31T08:04:19.794Z,37.23
2023-03-31T08:05:19.813Z,37.32
2023-03-31T08:06:19.908Z,37.36
2023-03-31T08:07:19.924Z,37.39
2023-03-31T08:08:20.017Z,37.29
2023-03-31T08:09:19.027Z,37.44
2023-03-31T08:10:19.093Z,37.57
2023-03-31T08:11:19.101Z,37.63
2023-03-31T08:12:19.176Z,37.62
2023-03-31T08:13:19.753Z,37.58
2023-03-31T08:14:30.341Z,37.91
2023-03-31T08:15:20.243Z,38.01
2023-03-31T08:16:20.321Z,37.91
2023-03-31T08:17:20.224Z,38.03
2023-03-31T08:18:20.185Z,37.84
2023-03-31T08:19:19.210Z,38.06
2023-03-31T08:20:20.285Z,38.02
2023-03-31T08:21:22.298Z,38.03
2023-03-31T08:22:20.192Z,38.28
2023-03-31T08:23:20.178Z,38.26
2023-03-31T08:24:20.171Z,38.31
2023-03-31T08:25:20.167Z,38.32
2023-03-31T08:26:19.149Z,38.32
2023-03-31T08:27:19.155Z,38.45
2023-03-31T08:28:20.175Z,38.43
2023-03-31T08:29:20.234Z,38.51
2023-03-31T08:30:20.153Z,38.78
2023-03-31T08:31:20.220Z,38.71
2023-03-31T08:32:20.101Z,38.68
2023-03-31T08:33:19.102Z,38.77
2023-03-31T08:34:19.087Z,38.87
2023-03-31T08:35:20.078Z,38.86
2023-03-31T08:36:20.198Z,39.07
2023-03-31T08:37:20.102Z,39.20
2023-03-31T08:38:20.061Z,39.12
2023-03-31T08:39:19.068Z,39.25
2023-03-31T08:40:19.111Z,39.23
2023-03-31T08:41:20.133Z,39.11
2023-03-31T08:42:20.172Z,39.34
2023-03-31T08:43:20.203Z,39.25
2023-03-31T08:44:20.083Z,39.33
2023-03-31T08:45:19.031Z,39.43
2023-03-31T08:46:20.088Z,39.39
2023-03-31T08:47:20.051Z,39.70
2023-03-31T08:48:20.008Z,39.82
2023-03-31T08:49:20.066Z,39.67
2023-03-31T08:50:20.120Z,39.85
2023-03-31T08:51:19.389Z,39.93
2023-03-31T08:52:20.042Z,39.58
2023-03-31T08:53:20.146Z,39.61
2023-03-31T08:55:38.230Z,40.01
2023-03-31T08:56:39.372Z,40.19
2023-03-31T08:57:38.224Z,40.30
2023-03-31T08:58:39.521Z,40.38
2023-03-31T08:59:39.283Z,40.41
2023-03-31T09:00:39.202Z,40.40
2023-03-31T09:01:52.215Z,40.41
2023-03-31T09:02:39.393Z,40.49
2023-03-31T09:03:39.279Z,40.32
2023-03-31T09:04:39.201Z,40.48
2023-03-31T09:05:45.932Z,40.32
2023-03-31T09:06:39.176Z,40.38
2023-03-31T09:07:39.205Z,39.98
2023-03-31T09:08:39.198Z,40.63
2023-03-31T09:09:39.129Z,40.39
2023-03-31T09:10:38.238Z,40.18
2023-03-31T09:11:39.204Z,40.51
2023-03-31T09:12:39.135Z,40.65
2023-03-31T09:13:39.183Z,40.41
2023-03-31T09:14:39.123Z,40.77
2023-03-31T09:15:39.114Z,40.59
2023-03-31T09:16:39.209Z,40.54
2023-03-31T09:17:39.131Z,40.89
2023-03-31T09:18:39.233Z,40.54
2023-03-31T09:19:39.148Z,40.61
2023-03-31T09:20:39.163Z,40.83
2023-03-31T09:21:38.147Z,40.47
2023-03-31T09:22:39.131Z,40.46
2023-03-31T09:23:39.050Z,40.50
2023-03-31T09:24:39.032Z,41.01
2023-03-31T09:25:39.104Z,40.37
2023-03-31T09:26:39.025Z,40.46
2023-03-31T09:27:38.013Z,40.94
2023-03-31T09:28:39.007Z,40.60
2023-03-31T09:29:39.226Z,40.55
2023-03-31T09:30:39.048Z,40.34
2023-03-31T09:31:39.089Z,40.79
2023-03-31T09:32:39.022Z,40.54
2023-03-31T09:33:39.092Z,40.75
2023-03-31T09:34:38.076Z,40.93
2023-03-31T09:35:39.113Z,40.84
2023-03-31T09:36:39.075Z,40.89
2023-03-31T09:37:38.987Z,40.86
2023-03-31T09:38:38.998Z,40.93
2023-03-31T09:39:38.933Z,40.87
2023-03-31T09:40:38.938Z,41.20
2023-03-31T09:41:38.931Z,41.11
2023-03-31T09:42:37.978Z,40.78
2023-03-31T09:43:38.913Z,40.91
2023-03-31T09:44:38.902Z,41.09
2023-03-31T09:45:39.042Z,41.09
2023-03-31T09:46:39.171Z,41.23
2023-03-31T09:47:39.115Z,41.31
2023-03-31T09:48:38.017Z,41.33
2023-03-31T09:49:38.898Z,41.76
2023-03-31T09:50:38.930Z,41.86
2023-03-31T09:51:38.887Z,41.63
2023-03-31T09:52:38.852Z,41.62
2023-03-31T09:53:37.984Z,41.91
2023-03-31T09:54:38.878Z,41.78
2023-03-31T09:55:40.344Z,41.76
2023-03-31T09:56:37.852Z,41.89
2023-03-31T09:57:38.993Z,41.90
2023-03-31T09:58:38.817Z,41.83
2023-03-31T09:59:38.821Z,41.79
2023-03-31T10:00:37.847Z,41.84
2023-03-31T10:01:38.922Z,41.90
2023-03-31T10:02:38.846Z,41.77
2023-03-31T10:03:38.936Z,41.85
2023-03-31T10:04:38.928Z,41.80
2023-03-31T10:05:38.786Z,41.83
2023-03-31T10:06:37.802Z,41.77
2023-03-31T10:07:38.775Z,41.71
2023-03-31T10:08:37.771Z,41.75
2023-03-31T10:09:38.797Z,41.70
2023-03-31T10:10:38.750Z,41.77
2023-03-31T10:11:37.759Z,41.69
2023-03-31T10:12:38.728Z,41.75
2023-03-31T10:13:38.757Z,41.67
2023-03-31T10:14:38.735Z,41.56
2023-03-31T10:15:40.345Z,41.62
2023-03-31T10:16:37.707Z,41.60
2023-03-31T10:17:53.946Z,41.64
2023-03-31T10:18:38.833Z,41.53
2023-03-31T10:19:38.718Z,41.51
2023-03-31T10:20:38.702Z,41.58
2023-03-31T10:21:38.742Z,41.58
2023-03-31T10:22:38.693Z,41.49
2023-03-31T10:23:38.714Z,41.54
2023-03-31T10:24:37.659Z,41.51
2023-03-31T10:25:38.683Z,41.52
2023-03-31T10:26:38.687Z,41.51
2023-03-31T10:27:38.685Z,41.55
2023-03-31T10:28:38.658Z,41.45
2023-03-31T10:29:38.651Z,41.52
2023-03-31T10:30:38.614Z,41.48
2023-03-31T10:31:38.720Z,41.46
2023-03-31T10:32:38.688Z,41.42
2023-03-31T10:33:38.701Z,41.33
2023-03-31T10:34:38.659Z,41.46
2023-03-31T10:35:37.637Z,41.47
2023-03-31T10:36:37.615Z,41.43
2023-03-31T10:37:37.586Z,41.45
2023-03-31T10:38:38.651Z,41.34
2023-03-31T10:39:38.580Z,41.35
2023-03-31T10:40:38.622Z,41.35
2023-03-31T10:41:38.611Z,41.33
2023-03-31T10:42:38.603Z,41.35
2023-03-31T10:43:38.975Z,41.23
2023-03-31T10:44:38.621Z,41.21
2023-03-31T10:45:38.525Z,41.24
2023-03-31T10:46:38.530Z,41.20
2023-03-31T10:47:38.548Z,41.17
2023-03-31T10:48:38.537Z,41.16
2023-03-31T10:49:38.524Z,41.09
2023-03-31T10:50:38.516Z,41.11
2023-03-31T10:51:37.504Z,41.08
2023-03-31T10:52:38.484Z,40.99
2023-03-31T10:53:38.474Z,41.02
2023-03-31T10:54:38.574Z,41.03
2023-03-31T10:55:38.485Z,41.02
2023-03-31T10:56:38.497Z,41.10
2023-03-31T10:57:37.672Z,41.09
2023-03-31T10:58:38.537Z,41.11
2023-03-31T10:59:38.527Z,41.17
2023-03-31T11:00:38.475Z,41.11
2023-03-31T11:01:37.520Z,41.16
2023-03-31T11:02:37.521Z,41.15
2023-03-31T11:03:37.536Z,41.12
2023-03-31T11:04:38.446Z,41.18
2023-03-31T11:05:38.465Z,41.26
2023-03-31T11:06:38.417Z,41.18
2023-03-31T11:07:38.465Z,41.22
2023-03-31T11:08:38.429Z,41.20
2023-03-31T11:09:38.472Z,41.22
2023-03-31T11:10:38.467Z,41.21
2023-03-31T11:11:38.491Z,41.24
2023-03-31T11:12:37.448Z,41.22
2023-03-31T11:13:38.392Z,41.24
2023-03-31T11:14:38.322Z,41.20
2023-03-31T11:15:37.344Z,41.18
2023-03-31T11:16:38.456Z,41.20
2023-03-31T11:17:38.331Z,41.17
2023-03-31T11:18:38.340Z,41.19
2023-03-31T11:19:38.303Z,41.18
2023-03-31T11:20:38.276Z,41.18
2023-03-31T11:21:38.306Z,41.14
2023-03-31T11:22:37.299Z,41.19
2023-03-31T11:23:37.328Z,41.20
2023-03-31T11:24:38.343Z,41.17
2023-03-31T11:25:38.382Z,41.12
2023-03-31T11:26:38.428Z,41.10
2023-03-31T11:27:38.462Z,41.13
2023-03-31T11:28:38.496Z,41.16
2023-03-31T11:29:38.508Z,41.08
2023-03-31T11:30:38.523Z,41.11
2023-03-31T11:31:38.689Z,41.05
2023-03-31T11:32:37.598Z,41.08
2023-03-31T11:33:37.627Z,41.07
2023-03-31T11:34:37.650Z,40.98
2023-03-31T11:35:38.747Z,41.05
2023-03-31T11:36:38.758Z,41.09
2023-03-31T11:37:38.786Z,40.97
2023-03-31T11:38:38.782Z,41.04
2023-03-31T11:39:38.780Z,41.00
2023-03-31T11:40:38.820Z,41.01
2023-03-31T11:41:38.827Z,40.92
2023-03-31T11:42:38.873Z,40.79
2023-03-31T11:43:37.875Z,40.85
2023-03-31T11:44:38.883Z,40.93
2023-03-31T11:45:38.987Z,40.90
2023-03-31T11:46:39.063Z,40.90
2023-03-31T11:47:38.962Z,40.89
2023-03-31T11:48:38.946Z,40.82
2023-03-31T11:49:39.021Z,40.79
2023-03-31T11:50:38.951Z,40.79
2023-03-31T11:51:37.966Z,40.82
2023-03-31T11:52:38.982Z,40.82
2023-03-31T11:53:38.980Z,40.81
2023-03-31T11:54:38.965Z,40.85
2023-03-31T11:55:38.981Z,40.79
2023-03-31T11:56:37.972Z,40.83
2023-03-31T11:57:39.011Z,40.82
2023-03-31T11:58:39.072Z,40.81
2023-03-31T11:59:38.093Z,40.79
2023-03-31T12:00:39.092Z,40.82
2023-03-31T12:01:39.140Z,40.75
2023-03-31T12:02:39.187Z,40.79
2023-03-31T12:03:39.185Z,40.87
2023-03-31T12:04:39.234Z,40.77
2023-03-31T12:05:39.265Z,40.82
2023-03-31T12:06:38.270Z,40.84
2023-03-31T12:07:38.304Z,40.79
2023-03-31T12:08:38.323Z,40.80
2023-03-31T12:09:38.318Z,40.81
2023-03-31T12:10:39.322Z,40.76
2023-03-31T12:11:39.332Z,40.79
2023-03-31T12:12:39.376Z,40.84
2023-03-31T12:13:39.412Z,40.82
2023-03-31T12:14:39.463Z,40.84
2023-03-31T12:15:39.478Z,40.82
2023-03-31T12:16:39.499Z,40.77
2023-03-31T12:17:39.566Z,40.84
2023-03-31T12:18:39.559Z,40.85
2023-03-31T12:19:39.572Z,40.78
2023-03-31T12:20:38.618Z,40.82
2023-03-31T12:21:38.634Z,40.89
2023-03-31T12:22:38.675Z,40.90
2023-03-31T12:23:39.715Z,40.85
2023-03-31T12:24:39.736Z,40.87
2023-03-31T12:25:39.759Z,40.85
2023-03-31T12:26:39.800Z,40.84
2023-03-31T12:27:38.821Z,40.85
2023-03-31T12:28:38.989Z,40.83
2023-03-31T12:29:39.908Z,40.85
2023-03-31T12:30:39.979Z,40.85
2023-03-31T12:31:40.010Z,40.86
2023-03-31T12:32:40.010Z,40.86
2023-03-31T12:33:40.080Z,40.89
2023-03-31T12:34:39.079Z,40.89
2023-03-31T12:35:40.150Z,40.92
2023-03-31T12:36:39.157Z,40.88
2023-03-31T12:37:39.216Z,40.85
2023-03-31T12:38:39.222Z,40.86
2023-03-31T12:39:40.238Z,40.78
2023-03-31T12:40:40.286Z,40.83
2023-03-31T12:41:40.367Z,40.77
2023-03-31T12:42:40.349Z,40.86
2023-03-31T12:43:40.398Z,40.82
2023-03-31T12:44:40.427Z,40.86
2023-03-31T12:45:40.459Z,40.76
2023-03-31T12:46:40.576Z,40.80
2023-03-31T12:47:40.558Z,40.77
2023-03-31T12:48:40.542Z,40.71
2023-03-31T12:49:40.592Z,40.78
2023-03-31T12:50:40.605Z,40.68
2023-03-31T12:51:39.628Z,40.66
2023-03-31T12:52:40.646Z,40.74
2023-03-31T12:53:40.705Z,40.75
2023-03-31T12:54:40.697Z,40.74
2023-03-31T12:55:40.742Z,40.72
2023-03-31T12:56:40.762Z,40.78
2023-03-31T12:57:40.780Z,40.71
2023-03-31T12:58:40.805Z,40.65
2023-03-31T12:59:40.806Z,40.68
2023-03-31T13:00:40.906Z,40.70
2023-03-31T13:01:40.927Z,40.70
2023-03-31T13:02:41.075Z,40.60
2023-03-31T13:03:39.891Z,40.56
2023-03-31T13:04:39.910Z,40.59
2023-03-31T13:05:39.958Z,40.58
2023-03-31T13:06:39.902Z,40.66
2023-03-31T13:07:40.933Z,40.68
2023-03-31T13:08:40.959Z,40.71
2023-03-31T13:09:40.974Z,40.68
2023-03-31T13:10:41.043Z,40.71
2023-03-31T13:11:40.036Z,40.61
2023-03-31T13:12:40.090Z,40.63
2023-03-31T13:13:54.292Z,40.63
2023-03-31T13:14:41.118Z,40.64
2023-03-31T13:15:41.166Z,40.61
2023-03-31T13:16:40.115Z,40.64
2023-03-31T13:17:41.121Z,40.65
2023-03-31T13:18:40.101Z,40.67
2023-03-31T13:19:41.085Z,40.66
2023-03-31T13:20:41.112Z,40.60
2023-03-31T13:21:40.052Z,40.58
2023-03-31T13:22:40.036Z,40.54
2023-03-31T13:23:41.048Z,40.62
2023-03-31T13:24:40.034Z,40.68
2023-03-31T13:25:41.034Z,40.61
2023-03-31T13:26:41.060Z,40.77
2023-03-31T13:27:41.011Z,40.74
2023-03-31T13:28:40.069Z,40.72
2023-03-31T13:29:40.006Z,40.63
2023-03-31T13:30:39.977Z,40.69
2023-03-31T13:31:39.990Z,40.57
2023-03-31T13:32:41.002Z,40.58
2023-03-31T13:33:40.974Z,40.46
2023-03-31T13:34:39.987Z,40.50
2023-03-31T13:35:41.006Z,40.40
2023-03-31T13:36:40.945Z,40.27
2023-03-31T13:37:39.932Z,40.57
2023-03-31T13:38:40.942Z,40.57
2023-03-31T13:39:40.927Z,40.42
2023-03-31T13:40:40.914Z,40.63
2023-03-31T13:41:40.911Z,40.65
2023-03-31T13:42:40.903Z,40.62
2023-03-31T13:43:39.898Z,40.69
2023-03-31T13:44:40.885Z,40.62
2023-03-31T13:45:40.948Z,40.67
2023-03-31T13:46:41.007Z,40.58
2023-03-31T13:47:40.891Z,40.64
2023-03-31T13:48:40.864Z,40.61
2023-03-31T13:49:39.857Z,40.61
2023-03-31T13:50:40.921Z,40.56
2023-03-31T13:51:40.892Z,40.64
2023-03-31T13:52:39.928Z,40.56
2023-03-31T13:53:40.994Z,40.62
2023-03-31T13:54:40.988Z,40.61
2023-03-31T13:55:41.010Z,40.65
2023-03-31T13:56:41.078Z,40.48
2023-03-31T13:57:40.043Z,40.57
2023-03-31T13:58:41.087Z,40.48
2023-03-31T13:59:41.085Z,40.55
2023-03-31T14:00:41.084Z,40.43
2023-03-31T14:01:41.200Z,40.43
2023-03-31T14:02:41.153Z,40.51
2023-03-31T14:03:41.188Z,40.55
2023-03-31T14:04:41.136Z,40.46
2023-03-31T14:05:40.166Z,40.52
2023-03-31T14:06:40.237Z,40.44
2023-03-31T14:07:41.297Z,40.41
2023-03-31T14:08:41.261Z,40.45
2023-03-31T14:09:41.331Z,40.50
2023-03-31T14:10:41.331Z,40.45
2023-03-31T14:11:40.394Z,40.50
2023-03-31T14:12:41.404Z,40.44
2023-03-31T14:13:41.457Z,40.52
2023-03-31T14:14:41.498Z,40.52
2023-03-31T14:15:41.594Z,40.51
2023-03-31T14:16:41.560Z,40.35
2023-03-31T14:17:40.672Z,40.02
2023-03-31T14:18:41.641Z,39.88
2023-03-31T14:19:40.648Z,40.83
2023-03-31T14:20:40.665Z,39.17
2023-03-31T14:21:40.693Z,39.54
2023-03-31T14:22:41.779Z,38.35
2023-03-31T14:23:41.818Z,37.87
2023-03-31T14:24:41.884Z,38.26
2023-03-31T14:25:41.911Z,38.69
2023-03-31T14:26:41.895Z,38.32
2023-03-31T14:27:41.932Z,38.36
2023-03-31T14:28:40.973Z,38.54
2023-03-31T14:29:41.961Z,38.51
2023-03-31T14:30:42.549Z,38.48
2023-03-31T14:31:42.132Z,38.60
2023-03-31T14:32:41.162Z,38.57
2023-03-31T14:33:41.180Z,38.85
2023-03-31T14:34:42.274Z,38.62
2023-03-31T14:35:42.275Z,38.72
2023-03-31T14:36:42.332Z,38.68
2023-03-31T14:37:42.373Z,38.68
2023-03-31T14:38:42.406Z,38.72
2023-03-31T14:39:42.431Z,38.80
2023-03-31T14:40:42.450Z,38.80
2023-03-31T14:41:42.468Z,38.85
2023-03-31T14:42:42.519Z,38.97
2023-03-31T14:43:41.539Z,39.00
2023-03-31T14:44:42.556Z,39.05
2023-03-31T14:45:41.553Z,39.10
2023-03-31T14:46:41.615Z,39.16
2023-03-31T14:47:41.643Z,39.16
2023-03-31T14:48:42.631Z,39.18
2023-03-31T14:49:42.671Z,39.21
2023-03-31T14:50:42.669Z,39.26
2023-03-31T14:51:42.712Z,39.30
2023-03-31T14:52:42.732Z,39.31
2023-03-31T14:53:41.766Z,39.37
2023-03-31T14:54:42.824Z,39.37
2023-03-31T14:55:54.839Z,39.48
2023-03-31T14:56:42.812Z,39.55
2023-03-31T14:57:41.810Z,39.53
2023-03-31T14:58:41.804Z,39.64
2023-03-31T14:59:41.802Z,39.58
2023-03-31T15:00:42.811Z,39.60
2023-03-31T15:01:42.781Z,39.55
2023-03-31T15:02:42.820Z,39.58
2023-03-31T15:03:42.778Z,39.61
2023-03-31T15:04:42.555Z,39.60
2023-03-31T15:05:42.761Z,39.67
2023-03-31T15:06:42.753Z,39.72
2023-03-31T15:07:42.741Z,39.67
2023-03-31T15:08:42.747Z,39.76
2023-03-31T15:09:42.744Z,39.79
2023-03-31T15:10:42.767Z,39.79
2023-03-31T15:11:42.724Z,39.81
2023-03-31T15:12:42.725Z,39.84
2023-03-31T15:13:44.301Z,39.85
2023-03-31T15:14:42.717Z,39.92
2023-03-31T15:15:41.712Z,39.96
2023-03-31T15:16:43.166Z,39.95
2023-03-31T15:17:42.722Z,39.99
2023-03-31T15:18:42.668Z,39.96
2023-03-31T15:19:41.662Z,39.99
2023-03-31T15:20:42.694Z,40.01
2023-03-31T15:21:41.676Z,40.09
2023-03-31T15:22:41.646Z,40.08
2023-03-31T15:23:41.634Z,40.04
2023-03-31T15:24:42.715Z,40.12
2023-03-31T15:25:42.765Z,40.22
2023-03-31T15:26:42.958Z,40.17
2023-03-31T15:27:42.895Z,40.43
2023-03-31T15:28:42.943Z,40.37
2023-03-31T15:29:42.989Z,40.50
